Petawawa Airport
CYWA : rendu visible

Aérodrome :











RETROUVEZ-NOUS SUR...

 
LOGIN :

S'inscrire | Disclaimer

   EN    FR    IT 

 









Légende :    VFR   VFR Marginal   IFR   IFR Intensif   IFR Très Intensif
Visi : 
Plafond : 
>= 8 km
>= 3000ft
5 à 8 km
1000 à 3000 ft
1500m à 5 km
500 à 1000 ft
800 à 1500m
200 à 500 ft
< 800m
< 200 ft
Symboles :   Orages  Brouillard  Fortes neiges  Fortes précipitations  Vent > 20 kt






- Altitude de l'aérodrome : 427 ft
- Code IATA : YWA


CYWA - Petawawa

DERNIER METAR :
  • 082200Z AUTO ///// 9SM CLR 33/16 A2983 RMK SLP100

METARs EXPIRÉS :
  • 082100Z AUTO ///// 9SM CLR 33/18 A2984 RMK SLP103
  • 082000Z AUTO ///// 9SM CLR 32/18 A2985 RMK SLP109

TAF TAF CYWA
Valide du 08 à 18h jusqu'au 09 à 18h UTC


081730Z 0818/0918 33005KT P6SM FEW090
TEMPO 0818/0821 P6SM -SHRA BKN060
BECMG 0903/0905 VRB03KT RMK FCST BASED ON AUTO OBS. NXT FCST BY 090000Z
FIR CZYZ / Amérique du Nord



MET'MAP, la Météo Aéronautique d'un coup d'oeil ! - Copyright ORBIFLY Décembre 2007 - Disclaimer

ORBIFLY MET'MAP TEAM :

Programmation & Développement : Alexandra Zaïnal
Sur une idée originale de : Baudouin d'Aumeries
Assistance à la programmation : Marc-Olivier Méhu
Soutien technique & logistique : Manuel Goepfert

Contact : metmap@orbifly.com




SOURCES & CREDITS :

   NOAA       Earth
Advisory